createdAt,value
2023-05-21T05:00:22.486Z,16.98
2023-05-21T05:05:24.540Z,17.14
2023-05-21T05:10:27.154Z,17.30
2023-05-21T05:15:30.073Z,17.44
2023-05-21T05:20:32.540Z,17.57
2023-05-21T05:25:34.417Z,17.75
2023-05-21T05:30:36.353Z,17.94
2023-05-21T05:35:50.884Z,18.12
2023-05-21T05:40:52.890Z,18.30
2023-05-21T05:45:55.990Z,18.46
2023-05-21T05:50:58.620Z,18.66
2023-05-21T05:56:01.383Z,18.82
2023-05-21T06:01:05.432Z,18.93
2023-05-21T06:06:07.250Z,19.03
2023-05-21T06:11:09.688Z,19.09
2023-05-21T06:16:11.517Z,19.13
2023-05-21T06:21:13.447Z,19.18
2023-05-21T06:26:15.749Z,19.21
2023-05-21T06:31:17.600Z,19.22
2023-05-21T06:36:19.806Z,19.23
2023-05-21T06:41:22.622Z,19.21
2023-05-21T06:46:28.225Z,19.16
2023-05-21T06:51:29.907Z,19.08
2023-05-21T06:56:31.562Z,19.02
2023-05-21T07:01:34.291Z,18.97
2023-05-21T07:06:37.735Z,18.97
2023-05-21T07:11:39.437Z,18.99
2023-05-21T07:16:44.136Z,19.05
2023-05-21T07:21:46.379Z,19.12
2023-05-21T07:26:48.048Z,19.15
2023-05-21T07:31:49.649Z,19.19
2023-05-21T07:36:51.235Z,19.24
2023-05-21T07:41:52.792Z,19.29
2023-05-21T07:46:56.015Z,19.42
2023-05-21T07:51:58.217Z,19.51
2023-05-21T07:57:01.756Z,19.63
2023-05-21T08:02:25.974Z,19.77
2023-05-21T08:07:27.936Z,19.94
2023-05-21T08:12:29.503Z,20.11
2023-05-21T08:17:31.427Z,20.28
2023-05-21T08:22:32.963Z,20.46
2023-05-21T08:27:34.763Z,20.64
2023-05-21T08:32:36.336Z,20.80
2023-05-21T08:37:38.134Z,20.95
2023-05-21T08:42:51.590Z,21.04
2023-05-21T08:48:17.361Z,21.06
2023-05-21T08:53:27.298Z,21.14
2023-05-21T08:58:33.498Z,21.31
2023-05-21T09:03:39.225Z,21.47
2023-05-21T09:08:48.038Z,21.66
2023-05-21T09:14:00.047Z,21.80
2023-05-21T09:19:14.528Z,21.99
2023-05-21T09:24:17.350Z,22.13
2023-05-21T09:29:19.130Z,22.27
2023-05-21T09:34:21.006Z,22.37
2023-05-21T09:39:29.826Z,22.45
2023-05-21T09:44:35.062Z,22.55
2023-05-21T09:49:37.908Z,22.65
2023-05-21T09:54:40.042Z,22.79
2023-05-21T09:59:41.532Z,22.95
2023-05-21T10:04:44.880Z,23.05
2023-05-21T10:09:48.912Z,23.19
2023-05-21T10:15:09.517Z,23.32
2023-05-21T10:20:12.869Z,23.41
2023-05-21T10:25:14.681Z,23.48
2023-05-21T10:30:18.129Z,23.57
2023-05-21T10:35:19.715Z,23.63
2023-05-21T10:40:21.228Z,23.75
2023-05-21T10:45:56.651Z,23.86
2023-05-21T10:51:19.700Z,23.92
2023-05-21T10:56:43.479Z,24.02
2023-05-21T11:01:45.521Z,24.09
2023-05-21T11:06:50.713Z,24.20
2023-05-21T11:11:57.907Z,24.38
2023-05-21T11:17:00.698Z,24.59
2023-05-21T11:22:07.058Z,24.79
2023-05-21T11:27:08.681Z,24.67
2023-05-21T11:32:12.221Z,24.53
2023-05-21T11:37:33.150Z,24.45
2023-05-21T11:42:39.112Z,24.53
2023-05-21T11:47:41.737Z,24.64
2023-05-21T11:52:44.435Z,24.88
2023-05-21T11:57:47.882Z,24.96
2023-05-21T12:02:53.103Z,24.85
2023-05-21T12:07:56.335Z,24.75
2023-05-21T12:12:57.925Z,24.75
2023-05-21T12:17:59.500Z,24.80
2023-05-21T12:23:01.135Z,24.97
2023-05-21T12:28:05.290Z,25.07
2023-05-21T12:33:07.017Z,25.21
2023-05-21T12:38:09.699Z,25.44
2023-05-21T12:43:11.373Z,25.65
2023-05-21T12:48:13.167Z,25.79
2023-05-21T12:53:14.650Z,25.77
2023-05-21T12:58:17.080Z,25.88
2023-05-21T13:03:19.170Z,26.31
2023-05-21T13:08:20.747Z,26.59
2023-05-21T13:13:22.216Z,27.77
2023-05-21T13:18:23.818Z,28.54
2023-05-21T13:23:25.554Z,28.07
2023-05-21T13:28:27.166Z,27.50
2023-05-21T13:33:28.798Z,27.04
2023-05-21T13:38:30.319Z,26.72
2023-05-21T13:43:32.087Z,26.47
2023-05-21T13:48:33.623Z,26.33
2023-05-21T13:53:35.315Z,26.23
2023-05-21T13:58:36.898Z,26.33
2023-05-21T14:03:38.435Z,26.58
2023-05-21T14:08:40.062Z,26.82
2023-05-21T14:13:42.104Z,27.05
2023-05-21T14:18:43.664Z,26.95
2023-05-21T14:23:45.307Z,26.74
2023-05-21T14:28:46.868Z,26.71
2023-05-21T14:33:48.459Z,26.78
2023-05-21T14:38:49.939Z,26.80
2023-05-21T14:43:51.605Z,26.72
2023-05-21T14:48:53.111Z,26.74
2023-05-21T14:53:55.619Z,26.89
2023-05-21T14:58:57.139Z,27.17
2023-05-21T15:03:58.883Z,27.23
2023-05-21T15:09:00.551Z,27.17
2023-05-21T15:14:02.022Z,27.03
2023-05-21T15:19:04.301Z,26.74
2023-05-21T15:24:06.006Z,26.63
2023-05-21T15:29:07.516Z,26.62
2023-05-21T15:34:09.637Z,26.61
2023-05-21T15:39:11.167Z,26.57
2023-05-21T15:44:12.650Z,26.53
2023-05-21T15:49:14.116Z,26.45
2023-05-21T15:54:16.084Z,26.36
2023-05-21T15:59:17.658Z,26.24
2023-05-21T16:04:20.261Z,26.15
2023-05-21T16:09:21.759Z,26.11
2023-05-21T16:14:24.441Z,26.04
2023-05-21T16:19:25.987Z,26.01
2023-05-21T16:24:27.530Z,26.05
2023-05-21T16:29:29.094Z,26.34
2023-05-21T16:34:30.921Z,26.58
2023-05-21T16:39:32.414Z,26.64
2023-05-21T16:44:34.048Z,26.51
2023-05-21T16:49:35.608Z,26.26
2023-05-21T16:54:37.186Z,26.19
2023-05-21T16:59:38.764Z,26.42
2023-05-21T17:04:40.331Z,26.37
2023-05-21T17:09:41.829Z,26.12
2023-05-21T17:14:43.315Z,25.74
2023-05-21T17:19:44.933Z,25.33
2023-05-21T17:24:46.469Z,25.03
2023-05-21T17:29:47.998Z,24.82
2023-05-21T17:34:49.522Z,24.60
2023-05-21T17:39:51.205Z,24.39
2023-05-21T17:44:53.318Z,24.21
2023-05-21T17:49:54.799Z,24.03
2023-05-21T17:54:56.443Z,23.89
2023-05-21T17:59:58.020Z,23.74
2023-05-21T18:04:59.446Z,23.60
2023-05-21T18:10:01.028Z,23.41
2023-05-21T18:15:02.526Z,23.25
2023-05-21T18:20:04.673Z,23.09
2023-05-21T18:25:06.733Z,22.94
2023-05-21T18:30:08.746Z,22.80
2023-05-21T18:35:11.899Z,22.69
2023-05-21T18:40:15.005Z,22.55
2023-05-21T18:45:16.859Z,22.43
2023-05-21T18:50:19.376Z,22.32
2023-05-21T18:55:20.958Z,22.16
2023-05-21T19:00:22.725Z,22.04
2023-05-21T19:10:25.724Z,21.78
2023-05-21T19:15:27.283Z,21.66
2023-05-21T19:20:29.209Z,21.57
2023-05-21T19:25:31.632Z,21.48
2023-05-21T19:30:36.264Z,21.41
2023-05-21T19:35:38.113Z,21.31
2023-05-21T19:40:39.704Z,21.20
2023-05-21T19:45:41.255Z,21.10
2023-05-21T19:50:42.791Z,21.03
2023-05-21T19:55:44.564Z,20.94
2023-05-21T20:00:47.185Z,20.87
2023-05-21T20:05:48.738Z,20.82
2023-05-21T20:10:51.942Z,20.74
2023-05-21T20:15:53.572Z,20.70
2023-05-21T20:20:55.230Z,20.64
2023-05-21T20:25:56.688Z,20.59
2023-05-21T20:30:58.296Z,20.52
2023-05-21T20:36:00.428Z,20.45
2023-05-21T20:41:02.155Z,20.38
2023-05-21T20:46:05.708Z,20.30
2023-05-21T20:51:08.019Z,20.21
2023-05-21T20:56:11.505Z,20.14
2023-05-21T21:01:14.390Z,20.08
2023-05-21T21:06:19.934Z,20.03
2023-05-21T21:11:21.756Z,19.98
2023-05-21T21:16:23.350Z,19.91
2023-05-21T21:21:24.995Z,19.87
2023-05-21T21:26:26.939Z,19.82
2023-05-21T21:31:29.570Z,19.77
2023-05-21T21:36:31.278Z,19.75
2023-05-21T21:41:33.135Z,19.71
2023-05-21T21:46:34.701Z,19.68
2023-05-21T21:51:36.836Z,19.61
2023-05-21T21:56:38.937Z,19.59
